PRIVATE WETTERSTATION BILLIGHEIM-ALLFELD                       ZURCK
Wetterdaten: Sonntag, 13.02.2022
Datum Zeit Temp. A. Temp. A. min Temp. A. max Feuchte A. Luftdruck Regen Wind Richtung Richtung Sonnenschein ET Solar Taupunkt Windchill Windben Empfang
13.02.2022 00:00 -1,6 C -1,6 C -1,4 C 88 % 1024,0 hPa 0,0 l/m 0,0 km/h (0 Bft) N 0 0 min 0,000 mm 0 W/m -3,3 C -1,6 C 0,0 km/h (0 Bft) 99 %
13.02.2022 00:10 -1,6 C -1,7 C -1,6 C 89 % 1023,9 hPa 0,0 l/m 0,0 km/h (0 Bft) N 0 0 min 0,000 mm 0 W/m -3,2 C -1,6 C 0,0 km/h (0 Bft) 100 %
13.02.2022 00:20 -1,1 C -1,6 C -1,1 C 89 % 1023,7 hPa 0,0 l/m 1,6 km/h (1 Bft) SO 135 0 min 0,000 mm 0 W/m -2,7 C -1,1 C 6,4 km/h (2 Bft) 100 %
13.02.2022 00:30 -0,5 C -1,1 C -0,5 C 86 % 1023,6 hPa 0,0 l/m 1,6 km/h (1 Bft) SO 135 0 min 0,000 mm 0 W/m -2,5 C -0,5 C 6,4 km/h (2 Bft) 100 %
13.02.2022 00:40 -0,3 C -0,5 C -0,3 C 85 % 1023,5 hPa 0,0 l/m 0,0 km/h (0 Bft) S-SO 157 0 min 0,000 mm 0 W/m -2,5 C -0,3 C 6,4 km/h (2 Bft) 100 %
13.02.2022 00:50 -0,1 C -0,3 C -0,1 C 84 % 1023,5 hPa 0,0 l/m 0,0 km/h (0 Bft) S-SO 157 0 min 0,000 mm 0 W/m -2,5 C -0,1 C 6,4 km/h (2 Bft) 100 %
13.02.2022 01:00 -0,1 C -0,1 C 0,0 C 84 % 1023,4 hPa 0,0 l/m 0,0 km/h (0 Bft) S-SO 157 0 min 0,000 mm 0 W/m -2,5 C -0,1 C 4,8 km/h (1 Bft) 100 %
13.02.2022 01:10 -0,1 C -0,1 C -0,1 C 84 % 1023,3 hPa 0,0 l/m 0,0 km/h (0 Bft) S-SO 157 0 min 0,000 mm 0 W/m -2,5 C -0,1 C 4,8 km/h (1 Bft) 100 %
13.02.2022 01:20 -0,3 C -0,3 C -0,1 C 84 % 1023,2 hPa 0,0 l/m 0,0 km/h (0 Bft) N 0 0 min 0,000 mm 0 W/m -2,7 C -0,3 C 0,0 km/h (0 Bft) 100 %
13.02.2022 01:30 -0,4 C -0,4 C -0,3 C 85 % 1023,2 hPa 0,0 l/m 0,0 km/h (0 Bft) N 0 0 min 0,000 mm 0 W/m -2,6 C -0,4 C 0,0 km/h (0 Bft) 100 %
13.02.2022 01:40 -0,4 C -0,4 C -0,4 C 85 % 1023,1 hPa 0,0 l/m 0,0 km/h (0 Bft) N 0 0 min 0,000 mm 0 W/m -2,6 C -0,4 C 0,0 km/h (0 Bft) 100 %
13.02.2022 01:50 -0,7 C -0,7 C -0,4 C 86 % 1023,0 hPa 0,0 l/m 0,0 km/h (0 Bft) N 0 0 min 0,000 mm 0 W/m -2,7 C -0,7 C 0,0 km/h (0 Bft) 100 %
13.02.2022 02:00 -0,8 C -0,8 C -0,7 C 85 % 1023,0 hPa 0,0 l/m 0,0 km/h (0 Bft) N 0 0 min 0,000 mm 0 W/m -3,0 C -0,8 C 0,0 km/h (0 Bft) 100 %
13.02.2022 02:10 -1,0 C -1,0 C -0,8 C 86 % 1022,9 hPa 0,0 l/m 0,0 km/h (0 Bft) N 0 0 min 0,000 mm 0 W/m -3,0 C -1,0 C 0,0 km/h (0 Bft) 90 %
13.02.2022 02:20 -0,9 C -1,1 C -0,9 C 87 % 1022,9 hPa 0,0 l/m 0,0 km/h (0 Bft) S-SO 157 0 min 0,000 mm 0 W/m -2,8 C -0,9 C 4,8 km/h (1 Bft) 100 %
13.02.2022 02:30 -1,0 C -1,0 C -0,9 C 86 % 1023,0 hPa 0,0 l/m 0,0 km/h (0 Bft) N 0 0 min 0,000 mm 0 W/m -3,0 C -1,0 C 0,0 km/h (0 Bft) 100 %
13.02.2022 02:40 -1,3 C -1,3 C -1,0 C 87 % 1023,0 hPa 0,0 l/m 0,0 km/h (0 Bft) N 0 0 min 0,000 mm 0 W/m -3,2 C -1,3 C 0,0 km/h (0 Bft) 100 %
13.02.2022 02:50 -1,2 C -1,3 C -1,2 C 87 % 1022,9 hPa 0,0 l/m 0,0 km/h (0 Bft) N 0 0 min 0,000 mm 0 W/m -3,1 C -1,2 C 0,0 km/h (0 Bft) 100 %
13.02.2022 03:00 -1,4 C -1,4 C -1,2 C 88 % 1022,8 hPa 0,0 l/m 0,0 km/h (0 Bft) N 0 0 min 0,000 mm 0 W/m -3,1 C -1,4 C 0,0 km/h (0 Bft) 100 %
13.02.2022 03:10 -1,3 C -1,4 C -1,3 C 87 % 1022,7 hPa 0,0 l/m 0,0 km/h (0 Bft) N 0 0 min 0,000 mm 0 W/m -3,2 C -1,3 C 0,0 km/h (0 Bft) 100 %
13.02.2022 03:20 -1,7 C -1,7 C -1,3 C 87 % 1022,6 hPa 0,0 l/m 0,0 km/h (0 Bft) N 0 0 min 0,000 mm 0 W/m -3,6 C -1,7 C 0,0 km/h (0 Bft) 99 %
13.02.2022 03:30 -2,0 C -2,0 C -1,7 C 87 % 1022,5 hPa 0,0 l/m 0,0 km/h (0 Bft) N 0 0 min 0,000 mm 0 W/m -3,9 C -2,0 C 0,0 km/h (0 Bft) 100 %
13.02.2022 03:40 -2,3 C -2,3 C -2,0 C 88 % 1022,4 hPa 0,0 l/m 0,0 km/h (0 Bft) N 0 0 min 0,000 mm 0 W/m -4,0 C -2,3 C 0,0 km/h (0 Bft) 100 %
13.02.2022 03:50 -2,6 C -2,6 C -2,3 C 89 % 1022,4 hPa 0,0 l/m 0,0 km/h (0 Bft) N 0 0 min 0,000 mm 0 W/m -4,2 C -2,6 C 0,0 km/h (0 Bft) 99 %
13.02.2022 04:00 -2,7 C -2,7 C -2,6 C 89 % 1022,3 hPa 0,0 l/m 0,0 km/h (0 Bft) N 0 0 min 0,000 mm 0 W/m -4,3 C -2,7 C 0,0 km/h (0 Bft) 100 %
13.02.2022 04:10 -2,8 C -2,8 C -2,7 C 90 % 1022,2 hPa 0,0 l/m 0,0 km/h (0 Bft) N 0 0 min 0,000 mm 0 W/m -4,2 C -2,8 C 0,0 km/h (0 Bft) 100 %
13.02.2022 04:20 -2,9 C -2,9 C -2,8 C 90 % 1022,2 hPa 0,0 l/m 0,0 km/h (0 Bft) N 0 0 min 0,000 mm 0 W/m -4,3 C -2,9 C 0,0 km/h (0 Bft) 100 %
13.02.2022 04:30 -2,9 C -2,9 C -2,8 C 90 % 1022,2 hPa 0,0 l/m 0,0 km/h (0 Bft) N 0 0 min 0,000 mm 0 W/m -4,3 C -2,9 C 0,0 km/h (0 Bft) 87 %
13.02.2022 04:40 -3,1 C -3,1 C -2,9 C 90 % 1022,0 hPa 0,0 l/m 0,0 km/h (0 Bft) N 0 0 min 0,000 mm 0 W/m -4,5 C -3,1 C 0,0 km/h (0 Bft) 100 %
13.02.2022 04:50 -3,2 C -3,2 C -3,1 C 91 % 1022,0 hPa 0,0 l/m 0,0 km/h (0 Bft) N 0 0 min 0,000 mm 0 W/m -4,5 C -3,2 C 0,0 km/h (0 Bft) 99 %
13.02.2022 05:00 -3,3 C -3,3 C -3,2 C 91 % 1022,0 hPa 0,0 l/m 0,0 km/h (0 Bft) N 0 0 min 0,000 mm 0 W/m -4,6 C -3,3 C 0,0 km/h (0 Bft) 100 %
13.02.2022 05:10 -3,4 C -3,4 C -3,3 C 91 % 1022,1 hPa 0,0 l/m 0,0 km/h (0 Bft) N 0 0 min 0,000 mm 0 W/m -4,7 C -3,4 C 0,0 km/h (0 Bft) 100 %
13.02.2022 05:20 -3,6 C -3,6 C -3,4 C 91 % 1021,9 hPa 0,0 l/m 0,0 km/h (0 Bft) N 0 0 min 0,000 mm 0 W/m -4,8 C -3,6 C 0,0 km/h (0 Bft) 100 %
13.02.2022 05:30 -3,7 C -3,7 C -3,6 C 91 % 1021,9 hPa 0,0 l/m 0,0 km/h (0 Bft) N 0 0 min 0,000 mm 0 W/m -4,9 C -3,7 C 0,0 km/h (0 Bft) 90 %
13.02.2022 05:40 -3,7 C -3,7 C -3,7 C 91 % 1021,8 hPa 0,0 l/m 0,0 km/h (0 Bft) N 0 0 min 0,000 mm 0 W/m -4,9 C -3,7 C 0,0 km/h (0 Bft) 99 %
13.02.2022 05:50 -3,7 C -3,7 C -3,7 C 92 % 1021,7 hPa 0,0 l/m 0,0 km/h (0 Bft) N 0 0 min 0,000 mm 0 W/m -4,8 C -3,7 C 0,0 km/h (0 Bft) 100 %
13.02.2022 06:00 -3,6 C -3,7 C -3,6 C 92 % 1021,7 hPa 0,0 l/m 0,0 km/h (0 Bft) N 0 0 min 0,000 mm 0 W/m -4,7 C -3,6 C 0,0 km/h (0 Bft) 100 %
13.02.2022 06:10 -3,7 C -3,7 C -3,6 C 92 % 1021,6 hPa 0,0 l/m 0,0 km/h (0 Bft) N 0 0 min 0,000 mm 0 W/m -4,8 C -3,7 C 0,0 km/h (0 Bft) 100 %
13.02.2022 06:20 -3,8 C -3,9 C -3,7 C 91 % 1021,5 hPa 0,0 l/m 0,0 km/h (0 Bft) N 0 0 min 0,000 mm 0 W/m -5,0 C -3,8 C 0,0 km/h (0 Bft) 100 %
13.02.2022 06:30 -3,9 C -3,9 C -3,8 C 92 % 1021,4 hPa 0,0 l/m 0,0 km/h (0 Bft) N 0 0 min 0,000 mm 0 W/m -5,0 C -3,9 C 0,0 km/h (0 Bft) 90 %
13.02.2022 06:40 -3,9 C -3,9 C -3,9 C 92 % 1021,4 hPa 0,0 l/m 0,0 km/h (0 Bft) N 0 0 min 0,000 mm 0 W/m -5,0 C -3,9 C 0,0 km/h (0 Bft) 100 %
13.02.2022 06:50 -3,8 C -3,9 C -3,8 C 92 % 1021,2 hPa 0,0 l/m 0,0 km/h (0 Bft) N 0 0 min 0,000 mm 0 W/m -4,9 C -3,8 C 0,0 km/h (0 Bft) 100 %
13.02.2022 07:00 -3,8 C -3,8 C -3,8 C 92 % 1021,2 hPa 0,0 l/m 0,0 km/h (0 Bft) N 0 0 min 0,000 mm 0 W/m -4,9 C -3,8 C 0,0 km/h (0 Bft) 100 %
13.02.2022 07:10 -3,7 C -3,8 C -3,7 C 92 % 1021,2 hPa 0,0 l/m 0,0 km/h (0 Bft) N 0 0 min 0,000 mm 0 W/m -4,8 C -3,7 C 0,0 km/h (0 Bft) 100 %
13.02.2022 07:20 -3,6 C -3,7 C -3,6 C 92 % 1021,0 hPa 0,0 l/m 0,0 km/h (0 Bft) N 0 0 min 0,000 mm 0 W/m -4,7 C -3,6 C 0,0 km/h (0 Bft) 100 %
13.02.2022 07:30 -3,6 C -3,6 C -3,5 C 92 % 1021,1 hPa 0,0 l/m 0,0 km/h (0 Bft) N 0 0 min 0,000 mm 0 W/m -4,7 C -3,6 C 0,0 km/h (0 Bft) 100 %
13.02.2022 07:40 -3,8 C -3,8 C -3,6 C 92 % 1021,0 hPa 0,0 l/m 0,0 km/h (0 Bft) N 0 0 min 0,000 mm 5 W/m -4,9 C -3,8 C 0,0 km/h (0 Bft) 100 %
13.02.2022 07:50 -3,9 C -3,9 C -3,8 C 92 % 1020,9 hPa 0,0 l/m 0,0 km/h (0 Bft) N 0 0 min 0,000 mm 11 W/m -5,0 C -3,9 C 0,0 km/h (0 Bft) 100 %
13.02.2022 08:00 -3,9 C -3,9 C -3,9 C 92 % 1021,0 hPa 0,0 l/m 0,0 km/h (0 Bft) N 0 0 min 0,000 mm 14 W/m -5,0 C -3,9 C 0,0 km/h (0 Bft) 100 %
13.02.2022 08:10 -4,0 C -4,0 C -3,9 C 92 % 1021,1 hPa 0,0 l/m 0,0 km/h (0 Bft) N 0 0 min 0,000 mm 19 W/m -5,1 C -4,0 C 0,0 km/h (0 Bft) 100 %
13.02.2022 08:20 -4,0 C -4,1 C -4,0 C 92 % 1021,0 hPa 0,0 l/m 0,0 km/h (0 Bft) N 0 0 min 0,000 mm 25 W/m -5,1 C -4,0 C 0,0 km/h (0 Bft) 100 %
13.02.2022 08:30 -3,9 C -4,0 C -3,9 C 92 % 1020,9 hPa 0,0 l/m 0,0 km/h (0 Bft) N 0 0 min 0,000 mm 28 W/m -5,0 C -3,9 C 0,0 km/h (0 Bft) 100 %
13.02.2022 08:40 -3,8 C -3,9 C -3,7 C 92 % 1020,8 hPa 0,0 l/m 0,0 km/h (0 Bft) N 0 0 min 0,000 mm 32 W/m -4,9 C -3,8 C 0,0 km/h (0 Bft) 87 %
13.02.2022 08:50 -3,5 C -3,8 C -3,5 C 92 % 1021,0 hPa 0,0 l/m 0,0 km/h (0 Bft) N 0 0 min 0,000 mm 120 W/m -4,6 C -3,5 C 0,0 km/h (0 Bft) 100 %
13.02.2022 09:00 -2,8 C -3,4 C -2,8 C 92 % 1020,9 hPa 0,0 l/m 0,0 km/h (0 Bft) N 0 0 min 0,025 mm 148 W/m -3,9 C -2,8 C 0,0 km/h (0 Bft) 100 %
13.02.2022 09:10 -2,1 C -2,8 C -2,1 C 92 % 1020,8 hPa 0,0 l/m 0,0 km/h (0 Bft) N 0 10 min 0,000 mm 179 W/m -3,2 C -2,1 C 0,0 km/h (0 Bft) 100 %
13.02.2022 09:20 -1,3 C -2,1 C -1,3 C 92 % 1020,7 hPa 0,0 l/m 0,0 km/h (0 Bft) N 0 10 min 0,000 mm 179 W/m -2,4 C -1,3 C 0,0 km/h (0 Bft) 100 %
13.02.2022 09:30 -0,6 C -1,3 C -0,6 C 92 % 1020,6 hPa 0,0 l/m 0,0 km/h (0 Bft) N 0 10 min 0,000 mm 297 W/m -1,7 C -0,6 C 0,0 km/h (0 Bft) 100 %
13.02.2022 09:40 -0,4 C -0,6 C -0,4 C 90 % 1020,4 hPa 0,0 l/m 0,0 km/h (0 Bft) S-SO 157 0 min 0,000 mm 111 W/m -1,8 C -0,4 C 6,4 km/h (2 Bft) 100 %
13.02.2022 09:50 -0,1 C -0,4 C -0,1 C 91 % 1020,4 hPa 0,0 l/m 0,0 km/h (0 Bft) S-SO 157 10 min 0,000 mm 302 W/m -1,4 C -0,1 C 3,2 km/h (1 Bft) 100 %
13.02.2022 10:00 0,7 C -0,1 C 0,7 C 90 % 1020,3 hPa 0,0 l/m 0,0 km/h (0 Bft) N 0 10 min 0,051 mm 302 W/m -0,7 C 0,7 C 0,0 km/h (0 Bft) 99 %
13.02.2022 10:10 1,4 C 0,7 C 1,4 C 88 % 1020,2 hPa 0,0 l/m 0,0 km/h (0 Bft) N 0 10 min 0,000 mm 278 W/m -0,4 C 1,4 C 0,0 km/h (0 Bft) 91 %
13.02.2022 10:20 1,8 C 1,4 C 1,8 C 87 % 1020,3 hPa 0,0 l/m 0,0 km/h (0 Bft) N 0 10 min 0,000 mm 323 W/m -0,1 C 1,8 C 0,0 km/h (0 Bft) 100 %
13.02.2022 10:30 2,3 C 1,8 C 2,3 C 85 % 1020,1 hPa 0,0 l/m 0,0 km/h (0 Bft) S-SO 157 10 min 0,000 mm 251 W/m 0,0 C 2,3 C 1,6 km/h (1 Bft) 100 %
13.02.2022 10:40 2,9 C 2,4 C 2,9 C 84 % 1020,0 hPa 0,0 l/m 0,0 km/h (0 Bft) N 0 10 min 0,000 mm 343 W/m 0,5 C 2,9 C 0,0 km/h (0 Bft) 100 %
13.02.2022 10:50 3,3 C 2,9 C 3,3 C 82 % 1019,9 hPa 0,0 l/m 0,0 km/h (0 Bft) S-SO 157 10 min 0,000 mm 357 W/m 0,5 C 3,3 C 4,8 km/h (1 Bft) 100 %
13.02.2022 11:00 4,0 C 3,3 C 4,0 C 81 % 1019,7 hPa 0,0 l/m 1,6 km/h (1 Bft) S 180 10 min 0,102 mm 367 W/m 1,0 C 4,0 C 8,0 km/h (2 Bft) 100 %
13.02.2022 11:10 4,4 C 4,0 C 4,5 C 78 % 1019,7 hPa 0,0 l/m 3,2 km/h (1 Bft) S-SO 157 10 min 0,000 mm 373 W/m 0,9 C 4,4 C 11,3 km/h (2 Bft) 100 %
13.02.2022 11:20 4,8 C 4,5 C 4,8 C 77 % 1019,6 hPa 0,0 l/m 3,2 km/h (1 Bft) S 180 10 min 0,000 mm 381 W/m 1,1 C 4,8 C 11,3 km/h (2 Bft) 100 %
13.02.2022 11:30 5,3 C 4,8 C 5,3 C 77 % 1019,5 hPa 0,0 l/m 3,2 km/h (1 Bft) S 180 10 min 0,000 mm 396 W/m 1,6 C 5,3 C 11,3 km/h (2 Bft) 100 %
13.02.2022 11:50 6,1 C 4,8 C 6,1 C 74 % 1019,4 hPa 0,0 l/m 1,5 km/h (1 Bft) S 190 20 min 0,000 mm 387 W/m 1,8 C 6,1 C 6,4 km/h (2 Bft) 100 %
13.02.2022 12:00 6,4 C 6,1 C 6,4 C 74 % 1019,0 hPa 0,0 l/m 3,2 km/h (1 Bft) S-SW 196 10 min 0,000 mm 425 W/m 2,1 C 6,4 C 9,7 km/h (2 Bft) 100 %
13.02.2022 12:10 6,7 C 6,4 C 6,7 C 73 % 1018,8 hPa 0,0 l/m 4,6 km/h (1 Bft) S-SO 161 10 min 0,152 mm 432 W/m 2,2 C 6,7 C 14,5 km/h (3 Bft) 100 %
13.02.2022 12:20 6,9 C 6,7 C 6,9 C 74 % 1018,7 hPa 0,0 l/m 2,1 km/h (1 Bft) S-SW 207 10 min 0,000 mm 434 W/m 2,6 C 6,9 C 9,7 km/h (2 Bft) 100 %
13.02.2022 12:30 7,4 C 6,9 C 7,4 C 73 % 1018,5 hPa 0,0 l/m 2,3 km/h (1 Bft) S-SW 205 10 min 0,000 mm 244 W/m 2,9 C 7,4 C 11,3 km/h (2 Bft) 100 %
13.02.2022 12:40 7,7 C 7,4 C 7,7 C 72 % 1018,3 hPa 0,0 l/m 0,9 km/h (0 Bft) S-SW 198 10 min 0,000 mm 434 W/m 3,0 C 7,7 C 8,0 km/h (2 Bft) 100 %
13.02.2022 12:50 7,9 C 7,7 C 7,9 C 71 % 1018,1 hPa 0,0 l/m 2,5 km/h (1 Bft) S 178 10 min 0,000 mm 360 W/m 3,0 C 7,9 C 11,3 km/h (2 Bft) 99 %
13.02.2022 13:00 7,9 C 7,9 C 7,9 C 71 % 1017,8 hPa 0,0 l/m 2,6 km/h (1 Bft) S 180 10 min 0,178 mm 362 W/m 3,0 C 7,9 C 14,5 km/h (3 Bft) 100 %
13.02.2022 13:10 8,4 C 7,9 C 8,4 C 70 % 1017,5 hPa 0,0 l/m 2,8 km/h (1 Bft) S 184 10 min 0,000 mm 420 W/m 3,3 C 8,4 C 11,3 km/h (2 Bft) 98 %
13.02.2022 13:20 8,7 C 8,4 C 8,7 C 70 % 1017,5 hPa 0,0 l/m 1,8 km/h (1 Bft) S-SW 211 10 min 0,000 mm 425 W/m 3,5 C 8,7 C 9,7 km/h (2 Bft) 100 %
13.02.2022 13:30 9,0 C 8,7 C 9,0 C 68 % 1017,2 hPa 0,0 l/m 3,4 km/h (1 Bft) S-SW 202 10 min 0,000 mm 420 W/m 3,4 C 9,0 C 14,5 km/h (3 Bft) 100 %
13.02.2022 13:40 9,4 C 9,0 C 9,4 C 68 % 1017,1 hPa 0,0 l/m 3,7 km/h (1 Bft) S-SW 195 10 min 0,000 mm 292 W/m 3,8 C 9,4 C 12,9 km/h (3 Bft) 100 %
13.02.2022 13:50 9,8 C 9,4 C 9,8 C 66 % 1016,8 hPa 0,0 l/m 2,1 km/h (1 Bft) SW 235 10 min 0,000 mm 329 W/m 3,8 C 9,8 C 9,7 km/h (2 Bft) 100 %
13.02.2022 14:00 10,3 C 9,8 C 10,3 C 65 % 1016,7 hPa 0,0 l/m 3,2 km/h (1 Bft) S-SW 213 10 min 0,178 mm 378 W/m 4,0 C 10,3 C 14,5 km/h (3 Bft) 99 %
13.02.2022 14:10 10,7 C 10,3 C 10,7 C 64 % 1016,4 hPa 0,0 l/m 0,5 km/h (0 Bft) S-SW 209 10 min 0,000 mm 376 W/m 4,2 C 10,7 C 8,0 km/h (2 Bft) 100 %
13.02.2022 14:20 10,8 C 10,7 C 10,8 C 64 % 1016,2 hPa 0,0 l/m 1,8 km/h (1 Bft) S-SW 195 10 min 0,000 mm 367 W/m 4,3 C 10,8 C 11,3 km/h (2 Bft) 100 %
13.02.2022 14:30 10,7 C 10,7 C 10,9 C 61 % 1015,9 hPa 0,0 l/m 1,1 km/h (1 Bft) S-SO 163 10 min 0,000 mm 352 W/m 3,5 C 10,7 C 12,9 km/h (3 Bft) 100 %
13.02.2022 14:40 11,1 C 10,7 C 11,1 C 61 % 1015,9 hPa 0,0 l/m 2,1 km/h (1 Bft) SW 226 10 min 0,000 mm 338 W/m 3,9 C 11,1 C 8,0 km/h (2 Bft) 100 %
13.02.2022 14:50 11,4 C 11,1 C 11,4 C 60 % 1015,5 hPa 0,0 l/m 1,9 km/h (1 Bft) S-SW 213 10 min 0,000 mm 295 W/m 3,9 C 11,4 C 16,1 km/h (3 Bft) 100 %
13.02.2022 15:00 11,3 C 11,3 C 11,4 C 58 % 1015,4 hPa 0,0 l/m 1,5 km/h (1 Bft) S 190 10 min 0,178 mm 308 W/m 3,3 C 11,3 C 12,9 km/h (3 Bft) 99 %
13.02.2022 15:10 11,3 C 11,2 C 11,4 C 58 % 1015,2 hPa 0,0 l/m 2,7 km/h (1 Bft) S-SW 209 10 min 0,000 mm 285 W/m 3,3 C 11,3 C 14,5 km/h (3 Bft) 100 %
13.02.2022 15:20 11,2 C 11,2 C 11,4 C 58 % 1015,1 hPa 0,0 l/m 2,3 km/h (1 Bft) O-SO 119 10 min 0,000 mm 246 W/m 3,2 C 11,2 C 16,1 km/h (3 Bft) 100 %
13.02.2022 15:30 11,2 C 11,1 C 11,2 C 57 % 1015,1 hPa 0,0 l/m 0,9 km/h (0 Bft) S 177 10 min 0,000 mm 255 W/m 3,0 C 11,2 C 9,7 km/h (2 Bft) 99 %
13.02.2022 15:40 11,5 C 11,2 C 11,5 C 57 % 1014,9 hPa 0,0 l/m 4,0 km/h (1 Bft) S 188 10 min 0,000 mm 234 W/m 3,3 C 11,5 C 17,7 km/h (3 Bft) 100 %
13.02.2022 15:50 11,6 C 11,5 C 11,6 C 58 % 1014,8 hPa 0,0 l/m 2,6 km/h (1 Bft) S-SW 200 10 min 0,000 mm 197 W/m 3,6 C 11,6 C 17,7 km/h (3 Bft) 100 %
13.02.2022 16:00 11,6 C 11,5 C 11,6 C 57 % 1014,8 hPa 0,0 l/m 3,0 km/h (1 Bft) S-SW 212 10 min 0,127 mm 167 W/m 3,4 C 11,6 C 17,7 km/h (3 Bft) 100 %
13.02.2022 16:10 11,3 C 11,3 C 11,6 C 57 % 1014,7 hPa 0,0 l/m 1,8 km/h (1 Bft) S-SW 211 0 min 0,000 mm 142 W/m 3,1 C 11,3 C 14,5 km/h (3 Bft) 98 %
13.02.2022 16:20 11,2 C 11,2 C 11,4 C 57 % 1014,6 hPa 0,0 l/m 1,0 km/h (0 Bft) S-SW 193 0 min 0,000 mm 113 W/m 3,0 C 11,2 C 12,9 km/h (3 Bft) 97 %
13.02.2022 16:30 11,0 C 11,0 C 11,2 C 59 % 1014,4 hPa 0,0 l/m 0,2 km/h (0 Bft) S-SW 196 0 min 0,000 mm 88 W/m 3,3 C 11,0 C 8,0 km/h (2 Bft) 97 %
13.02.2022 16:40 10,9 C 10,9 C 11,1 C 60 % 1014,2 hPa 0,0 l/m 0,0 km/h (0 Bft) S-SW 194 0 min 0,000 mm 60 W/m 3,4 C 10,9 C 0,0 km/h (0 Bft) 97 %
13.02.2022 16:50 10,8 C 10,8 C 10,9 C 60 % 1014,0 hPa 0,0 l/m 0,0 km/h (0 Bft) S-SW 196 0 min 0,000 mm 42 W/m 3,4 C 10,8 C 1,6 km/h (1 Bft) 97 %
13.02.2022 17:00 10,4 C 10,4 C 10,8 C 61 % 1014,0 hPa 0,0 l/m 0,0 km/h (0 Bft) S-SW 196 0 min 0,050 mm 25 W/m 3,2 C 10,4 C 0,0 km/h (0 Bft) 97 %
13.02.2022 17:10 10,1 C 10,1 C 10,4 C 63 % 1013,7 hPa 0,0 l/m 0,0 km/h (0 Bft) S-SW 196 0 min 0,000 mm 19 W/m 3,4 C 10,1 C 0,0 km/h (0 Bft) 97 %
13.02.2022 17:20 9,7 C 9,7 C 10,1 C 61 % 1013,6 hPa 0,0 l/m 0,0 km/h (0 Bft) S-SW 196 0 min 0,000 mm 14 W/m 2,5 C 9,7 C 0,0 km/h (0 Bft) 98 %
13.02.2022 17:30 9,6 C 9,6 C 9,7 C 60 % 1013,4 hPa 0,0 l/m 0,0 km/h (0 Bft) S-SW 196 0 min 0,000 mm 7 W/m 2,2 C 9,6 C 0,0 km/h (0 Bft) 97 %
13.02.2022 17:40 9,3 C 9,3 C 9,6 C 61 % 1013,2 hPa 0,0 l/m 0,0 km/h (0 Bft) S-SW 194 0 min 0,000 mm 0 W/m 2,2 C 9,3 C 0,0 km/h (0 Bft) 98 %
13.02.2022 17:50 9,2 C 9,2 C 9,3 C 61 % 1013,3 hPa 0,0 l/m 0,0 km/h (0 Bft) S-SW 194 0 min 0,000 mm 0 W/m 2,1 C 9,2 C 0,0 km/h (0 Bft) 97 %
13.02.2022 18:00 8,9 C 8,9 C 9,2 C 61 % 1013,1 hPa 0,0 l/m 0,0 km/h (0 Bft) S-SW 194 0 min 0,000 mm 0 W/m 1,8 C 8,9 C 0,0 km/h (0 Bft) 98 %
13.02.2022 18:10 8,8 C 8,8 C 8,9 C 61 % 1013,1 hPa 0,0 l/m 0,0 km/h (0 Bft) S 186 0 min 0,000 mm 0 W/m 1,7 C 8,8 C 0,0 km/h (0 Bft) 98 %
13.02.2022 18:20 8,4 C 8,4 C 8,8 C 64 % 1012,9 hPa 0,0 l/m 0,0 km/h (0 Bft) S 186 0 min 0,000 mm 0 W/m 2,0 C 8,4 C 0,0 km/h (0 Bft) 99 %
13.02.2022 18:30 8,0 C 8,0 C 8,4 C 62 % 1012,9 hPa 0,0 l/m 0,4 km/h (0 Bft) S 169 0 min 0,000 mm 0 W/m 1,2 C 8,0 C 4,8 km/h (1 Bft) 98 %
13.02.2022 18:40 7,9 C 7,9 C 8,1 C 63 % 1012,8 hPa 0,0 l/m 0,0 km/h (0 Bft) S 169 0 min 0,000 mm 0 W/m 1,3 C 7,9 C 0,0 km/h (0 Bft) 97 %
13.02.2022 18:50 7,7 C 7,7 C 7,9 C 64 % 1012,7 hPa 0,0 l/m 0,6 km/h (0 Bft) S-SO 149 0 min 0,000 mm 0 W/m 1,3 C 7,7 C 11,3 km/h (2 Bft) 97 %
13.02.2022 19:00 7,4 C 7,4 C 7,7 C 66 % 1012,7 hPa 0,0 l/m 0,0 km/h (0 Bft) S-SO 150 0 min 0,000 mm 0 W/m 1,5 C 7,4 C 0,0 km/h (0 Bft) 97 %
13.02.2022 19:10 6,8 C 6,8 C 7,4 C 67 % 1012,7 hPa 0,0 l/m 0,0 km/h (0 Bft) S-SO 152 0 min 0,025 mm 0 W/m 1,1 C 6,8 C 0,0 km/h (0 Bft) 97 %
13.02.2022 19:20 6,3 C 6,3 C 6,8 C 68 % 1012,6 hPa 0,0 l/m 0,2 km/h (0 Bft) S-SO 152 0 min 0,001 mm 0 W/m 0,8 C 6,3 C 6,4 km/h (2 Bft) 97 %
13.02.2022 19:30 5,9 C 5,9 C 6,3 C 69 % 1012,4 hPa 0,0 l/m 0,0 km/h (0 Bft) S-SO 147 0 min 0,000 mm 0 W/m 0,7 C 5,9 C 1,6 km/h (1 Bft) 98 %
13.02.2022 19:40 5,8 C 5,8 C 5,9 C 69 % 1012,4 hPa 0,0 l/m 0,0 km/h (0 Bft) SO 141 0 min 0,000 mm 0 W/m 0,6 C 5,8 C 1,6 km/h (1 Bft) 97 %
13.02.2022 19:50 5,9 C 5,7 C 5,9 C 68 % 1012,3 hPa 0,0 l/m 0,1 km/h (0 Bft) S-SO 149 0 min 0,000 mm 0 W/m 0,5 C 5,9 C 6,4 km/h (2 Bft) 97 %
13.02.2022 20:00 6,1 C 5,9 C 6,1 C 68 % 1012,3 hPa 0,0 l/m 0,4 km/h (0 Bft) S-SO 148 0 min 0,000 mm 0 W/m 0,6 C 6,1 C 8,0 km/h (2 Bft) 97 %
13.02.2022 20:10 5,9 C 5,9 C 6,1 C 67 % 1012,2 hPa 0,0 l/m 1,6 km/h (1 Bft) S-SO 150 0 min 0,025 mm 0 W/m 0,3 C 5,9 C 11,3 km/h (2 Bft) 97 %
13.02.2022 20:20 6,5 C 5,9 C 6,5 C 65 % 1012,1 hPa 0,0 l/m 3,0 km/h (1 Bft) S-SO 153 0 min 0,000 mm 0 W/m 0,4 C 6,5 C 11,3 km/h (2 Bft) 97 %
13.02.2022 20:30 6,6 C 6,5 C 6,7 C 64 % 1012,0 hPa 0,0 l/m 2,8 km/h (1 Bft) S-SO 148 0 min 0,000 mm 0 W/m 0,3 C 6,6 C 17,7 km/h (3 Bft) 97 %
13.02.2022 20:40 6,5 C 6,5 C 6,7 C 64 % 1012,0 hPa 0,0 l/m 2,1 km/h (1 Bft) S-SO 147 0 min 0,000 mm 0 W/m 0,2 C 6,5 C 11,3 km/h (2 Bft) 98 %
13.02.2022 20:50 6,5 C 6,4 C 6,5 C 63 % 1011,9 hPa 0,0 l/m 2,1 km/h (1 Bft) S-SO 151 0 min 0,000 mm 0 W/m -0,0 C 6,5 C 14,5 km/h (3 Bft) 98 %
13.02.2022 21:00 6,5 C 6,5 C 6,5 C 62 % 1011,8 hPa 0,0 l/m 1,5 km/h (1 Bft) SO 142 0 min 0,000 mm 0 W/m -0,2 C 6,5 C 9,7 km/h (2 Bft) 97 %
13.02.2022 21:10 6,4 C 6,4 C 6,6 C 62 % 1011,7 hPa 0,0 l/m 3,2 km/h (1 Bft) S-SO 157 0 min 0,000 mm 0 W/m -0,3 C 6,4 C 16,1 km/h (3 Bft) 100 %
13.02.2022 21:20 6,4 C 6,4 C 6,5 C 62 % 1011,6 hPa 0,0 l/m 3,2 km/h (1 Bft) SO 135 0 min 0,000 mm 0 W/m -0,3 C 6,4 C 16,1 km/h (3 Bft) 100 %
13.02.2022 21:30 6,4 C 6,4 C 6,5 C 61 % 1011,6 hPa 0,0 l/m 3,2 km/h (1 Bft) S-SO 157 0 min 0,000 mm 0 W/m -0,6 C 6,4 C 17,7 km/h (3 Bft) 100 %
13.02.2022 21:40 6,2 C 6,2 C 6,4 C 62 % 1011,6 hPa 0,0 l/m 1,6 km/h (1 Bft) S-SO 157 0 min 0,000 mm 0 W/m -0,5 C 6,2 C 17,7 km/h (3 Bft) 100 %
13.02.2022 21:50 6,1 C 6,1 C 6,2 C 62 % 1011,6 hPa 0,0 l/m 1,6 km/h (1 Bft) S-SO 157 0 min 0,000 mm 0 W/m -0,6 C 6,1 C 14,5 km/h (3 Bft) 100 %
13.02.2022 22:00 6,0 C 6,0 C 6,1 C 63 % 1011,6 hPa 0,0 l/m 3,2 km/h (1 Bft) S-SO 157 0 min 0,025 mm 0 W/m -0,5 C 6,0 C 14,5 km/h (3 Bft) 100 %
13.02.2022 22:10 5,9 C 5,9 C 6,0 C 62 % 1011,5 hPa 0,0 l/m 3,2 km/h (1 Bft) S-SO 157 0 min 0,000 mm 0 W/m -0,8 C 5,9 C 12,9 km/h (3 Bft) 100 %
13.02.2022 22:20 5,9 C 5,9 C 5,9 C 62 % 1011,4 hPa 0,0 l/m 1,6 km/h (1 Bft) SO 135 0 min 0,000 mm 0 W/m -0,8 C 5,9 C 11,3 km/h (2 Bft) 90 %
13.02.2022 22:30 5,8 C 5,8 C 5,9 C 63 % 1011,3 hPa 0,0 l/m 1,6 km/h (1 Bft) S-SO 157 0 min 0,000 mm 0 W/m -0,7 C 5,8 C 9,7 km/h (2 Bft) 100 %
13.02.2022 22:40 5,6 C 5,6 C 5,8 C 64 % 1011,3 hPa 0,0 l/m 1,6 km/h (1 Bft) S-SO 157 0 min 0,000 mm 0 W/m -0,7 C 5,6 C 11,3 km/h (2 Bft) 100 %
13.02.2022 22:50 5,4 C 5,4 C 5,6 C 64 % 1011,2 hPa 0,0 l/m 1,6 km/h (1 Bft) S-SO 157 0 min 0,000 mm 0 W/m -0,9 C 5,4 C 11,3 km/h (2 Bft) 100 %
13.02.2022 23:00 5,3 C 5,3 C 5,4 C 64 % 1011,2 hPa 0,0 l/m 0,0 km/h (0 Bft) N 0 0 min 0,025 mm 0 W/m -0,9 C 5,3 C 0,0 km/h (0 Bft) 100 %
13.02.2022 23:10 5,2 C 5,2 C 5,3 C 64 % 1011,1 hPa 0,0 l/m 0,0 km/h (0 Bft) S-SO 157 0 min 0,000 mm 0 W/m -1,0 C 5,2 C 6,4 km/h (2 Bft) 100 %
13.02.2022 23:20 5,0 C 4,9 C 5,2 C 65 % 1011,1 hPa 0,0 l/m 0,0 km/h (0 Bft) N 0 0 min 0,000 mm 0 W/m -1,0 C 5,0 C 0,0 km/h (0 Bft) 100 %
13.02.2022 23:30 5,1 C 5,0 C 5,1 C 64 % 1011,0 hPa 0,0 l/m 0,0 km/h (0 Bft) S-SO 157 0 min 0,000 mm 0 W/m -1,1 C 5,1 C 6,4 km/h (2 Bft) 100 %
13.02.2022 23:40 5,1 C 5,1 C 5,2 C 64 % 1010,9 hPa 0,0 l/m 0,0 km/h (0 Bft) S-SO 157 0 min 0,000 mm 0 W/m -1,1 C 5,1 C 9,7 km/h (2 Bft) 100 %
13.02.2022 23:50 5,1 C 5,1 C 5,2 C 65 % 1010,9 hPa 0,0 l/m 1,6 km/h (1 Bft) S-SO 157 0 min 0,000 mm 0 W/m -0,9 C 5,1 C 11,3 km/h (2 Bft) 100 %
_ Min-Zeit 08:20 08:20 08:20 15:30 23:40 - 00:00 - - - - - 08:10 08:10 00:00 04:30
Minimum _ -4,1 C -4,1 C -4,0 C 57 % 1010,9 hPa - 0,0 km/h (0 Bft) - - - - - -5,1 C -4,0 C 0,0 km/h (0 Bft) 87 %
_ Max-Zeit 15:50 15:50 15:50 05:50 00:00 00:00 12:10 - - 11:50 13:00 12:20 14:20 15:50 15:40 00:10
Maximum _ 11,6 C 11,5 C 11,6 C 92 % 1024,0 hPa 0,0 l/m 4,6 km/h
S-SO (1 Bft)
- - 20 min 0,178 mm 434 W/m 4,3 C 11,6 C 17,7 km/h
S-SW (3 Bft)
100 %
Durchschnitt _ 3,4 C 3,2 C 3,5 C 76 % 1017,8 hPa #0,0 l/m 0,8 km/h (0 Bft) S-SO - #6:50 h #1,142 mm 239 W/m -0,7 C 3,4 C 5,3 km/h (1 Bft) 99 %
PRIVATE WETTERSTATION BILLIGHEIM-ALLFELD - www.neckar-odenwald-wetter.de - Holger Sonntag